createdAt,value
2023-03-23T16:01:06.731Z,26.98
2023-03-23T16:04:43.192Z,26.94
2023-03-23T16:08:13.479Z,26.95
2023-03-23T16:11:42.088Z,26.84
2023-03-23T16:15:10.856Z,26.90
2023-03-23T16:18:39.474Z,26.90
2023-03-23T16:22:08.351Z,26.88
2023-03-23T16:25:38.315Z,26.77
2023-03-23T16:29:15.956Z,26.82
2023-03-23T16:32:54.315Z,26.80
2023-03-23T16:36:25.009Z,26.79
2023-03-23T16:38:54.906Z,26.78
2023-03-23T16:41:24.833Z,26.79
2023-03-23T16:44:53.483Z,26.77
2023-03-23T16:48:22.185Z,26.70
2023-03-23T16:51:50.832Z,26.68
2023-03-23T16:55:19.797Z,26.64
2023-03-23T16:58:48.423Z,26.59
2023-03-23T17:02:17.147Z,26.62
2023-03-23T17:05:46.546Z,26.59
2023-03-23T17:09:15.482Z,26.60
2023-03-23T17:12:44.145Z,26.58
2023-03-23T17:16:13.039Z,26.58
2023-03-23T17:24:46.649Z,26.55
2023-03-23T17:27:22.053Z,26.52
2023-03-23T17:29:52.089Z,26.53
2023-03-23T17:33:20.973Z,26.54
2023-03-23T17:36:49.798Z,26.51
2023-03-23T17:40:18.432Z,26.52
2023-03-23T17:43:47.164Z,26.48
2023-03-23T17:47:15.866Z,26.47
2023-03-23T17:50:44.592Z,26.48
2023-03-23T17:54:13.245Z,26.48
2023-03-23T17:57:43.285Z,26.46
2023-03-23T18:01:12.901Z,26.45
2023-03-23T18:04:41.622Z,26.44
2023-03-23T18:07:11.780Z,26.46
2023-03-23T18:09:41.597Z,26.48
2023-03-23T18:12:12.197Z,26.46
2023-03-23T18:14:41.870Z,26.43
2023-03-23T18:17:11.863Z,26.43
2023-03-23T18:20:40.563Z,26.38
2023-03-23T18:24:09.224Z,26.38
2023-03-23T18:27:37.974Z,26.38
2023-03-23T18:31:06.640Z,26.38
2023-03-23T18:34:35.333Z,26.39
2023-03-23T18:38:03.995Z,26.38
2023-03-23T18:41:32.757Z,26.36
2023-03-23T18:45:01.440Z,26.37
2023-03-23T18:48:30.120Z,26.35
2023-03-23T18:51:58.780Z,26.34
2023-03-23T18:55:27.493Z,26.30
2023-03-23T18:58:56.167Z,26.31
2023-03-23T19:02:25.317Z,26.31
2023-03-23T19:05:53.992Z,26.30
2023-03-23T19:09:22.683Z,26.26
2023-03-23T19:12:51.332Z,26.27
2023-03-23T19:16:20.129Z,26.30
2023-03-23T19:19:48.839Z,26.29
2023-03-23T19:23:17.626Z,26.30
2023-03-23T20:18:53.604Z,26.23
2023-03-23T20:22:22.928Z,26.21
2023-03-23T20:25:51.930Z,26.19
2023-03-23T20:29:20.786Z,26.19
2023-03-23T20:32:49.570Z,26.21
2023-03-23T20:36:18.333Z,26.24
2023-03-23T20:39:47.081Z,26.23
2023-03-23T20:43:15.830Z,26.23
2023-03-23T20:46:44.575Z,26.22
2023-03-23T20:50:13.235Z,26.19
2023-03-23T20:53:42.000Z,26.18
2023-03-23T20:57:10.843Z,26.21
2023-03-23T21:00:39.661Z,26.21
2023-03-23T21:04:08.346Z,26.19
2023-03-23T21:07:37.103Z,26.20
2023-03-23T21:11:05.883Z,26.17
2023-03-23T21:14:34.591Z,26.17
2023-03-23T21:18:03.269Z,26.18
2023-03-23T21:21:33.276Z,26.15
2023-03-23T21:24:02.938Z,26.17
2023-03-23T21:26:32.853Z,26.19
2023-03-23T21:29:02.487Z,26.17
2023-03-23T21:31:34.688Z,26.15
2023-03-23T21:34:04.681Z,26.17
2023-03-23T21:36:34.887Z,26.15
2023-03-23T21:39:07.544Z,26.15
2023-03-23T21:41:42.185Z,26.14
2023-03-23T21:45:11.436Z,26.12
2023-03-23T21:48:40.088Z,26.10
2023-03-23T21:52:08.794Z,26.10
2023-03-23T21:55:37.497Z,26.12
2023-03-23T21:59:06.134Z,26.11
2023-03-23T22:02:34.884Z,26.14
2023-03-23T22:05:11.768Z,26.12
2023-03-23T22:07:41.498Z,26.17
2023-03-23T22:11:10.254Z,26.14
2023-03-23T22:14:38.881Z,26.15
2023-03-23T22:18:07.619Z,26.13
2023-03-23T22:21:36.326Z,26.15
2023-03-23T22:25:05.133Z,26.19
2023-03-23T22:27:34.901Z,26.21
2023-03-23T22:30:04.702Z,26.22
2023-03-23T22:32:34.444Z,26.21
2023-03-23T22:35:04.163Z,26.19
2023-03-23T22:38:32.817Z,26.16
2023-03-23T22:41:04.253Z,26.22
2023-03-23T22:43:33.876Z,26.23
2023-03-23T22:46:03.842Z,26.24
2023-03-23T22:48:34.000Z,26.30
2023-03-23T22:52:02.723Z,26.29
2023-03-23T22:55:31.480Z,26.34
2023-03-23T22:59:00.191Z,26.35
2023-03-23T23:02:29.010Z,26.39
2023-03-23T23:05:57.828Z,26.40
2023-03-23T23:09:26.508Z,26.42
2023-03-23T23:12:55.229Z,26.41
2023-03-23T23:16:23.975Z,26.38
2023-03-23T23:19:52.724Z,26.43
2023-03-23T23:23:21.373Z,26.46
2023-03-23T23:26:50.091Z,26.57
2023-03-23T23:30:18.735Z,26.60
2023-03-23T23:33:47.608Z,26.65
2023-03-23T23:37:16.266Z,26.69
2023-03-23T23:40:45.288Z,26.71
2023-03-23T23:44:14.171Z,26.69
2023-03-23T23:47:42.959Z,26.72
2023-03-23T23:51:11.681Z,26.77
2023-03-23T23:54:40.482Z,26.81
2023-03-23T23:58:09.141Z,26.81
